Time;durP1;ratioP1;P1;durP2;ratioP2;P2;SDS_P1;SDS_P2;PMS_P1;PMS_P2;Temp;Humidity;BMP_temperature;BMP_pressure;BME280_temperature;BME280_humidity;BME280_pressure;Samples;Min_cycle;Max_cycle;Signal;HPM_P1;HPM_P2
2023/06/05 00:01:37;;;;;;;3.20;1.60;;;14.30;80.10;;;13.91;55.66;97269.38;5048736;28;20070;-85
2023/06/05 00:04:03;;;;;;;2.13;1.50;;;14.20;80.40;;;13.79;55.19;97243.53;5052036;28;20025;-85
2023/06/05 00:06:30;;;;;;;2.42;1.50;;;14.20;80.20;;;14.03;55.12;97293.53;5055068;28;20043;-85
2023/06/05 00:08:56;;;;;;;3.28;1.42;;;14.20;80.00;;;14.00;55.28;97294.56;5053345;28;20020;-85
2023/06/05 00:11:22;;;;;;;2.08;1.58;;;14.10;80.30;;;13.84;55.20;97277.75;5052541;28;20666;-85
2023/06/05 00:13:48;;;;;;;2.28;1.35;;;14.10;80.30;;;13.83;55.19;97279.53;5055535;28;20098;-85
2023/06/05 00:16:14;;;;;;;6.20;1.63;;;14.10;80.30;;;13.73;55.64;97262.41;5054242;28;20954;-85
2023/06/05 00:18:40;;;;;;;4.80;1.60;;;14.10;80.60;;;13.92;55.47;97296.75;5031085;28;20033;-85
2023/06/05 00:21:05;;;;;;;3.13;1.75;;;14.10;80.50;;;13.80;55.91;97266.44;5054191;28;20123;-85
2023/06/05 00:23:31;;;;;;;3.15;1.95;;;14.00;80.70;;;13.77;55.94;97271.06;5054284;28;20025;-85
2023/06/05 00:25:57;;;;;;;3.17;1.60;;;14.00;80.80;;;13.88;56.01;97296.03;5049338;28;20064;-85
2023/06/05 00:28:24;;;;;;;2.40;1.45;;;14.10;80.80;;;13.70;55.64;97265.19;5047369;28;20121;-85
2023/06/05 00:30:50;;;;;;;1.80;1.40;;;14.00;80.40;;;13.77;56.49;97277.19;5034814;28;20111;-85
2023/06/05 00:33:15;;;;;;;3.25;1.42;;;14.00;81.10;;;13.69;57.00;97264.34;5034476;28;20132;-85
2023/06/05 00:35:41;;;;;;;2.58;1.48;;;14.00;81.50;;;13.74;57.34;97282.66;5048276;28;20040;-85
2023/06/05 00:38:07;;;;;;;2.35;1.73;;;13.90;81.70;;;13.63;57.23;97274.41;5024882;28;20028;-84
2023/06/05 00:40:33;;;;;;;4.18;1.50;;;13.90;81.70;;;13.50;57.94;97260.94;5042655;28;20465;-85
2023/06/05 00:42:58;;;;;;;2.40;1.70;;;13.80;82.10;;;13.42;57.88;97249.84;5044397;28;20620;-85
2023/06/05 00:45:24;;;;;;;2.35;1.65;;;13.70;82.20;;;13.56;58.13;97290.59;5025607;28;20170;-85
2023/06/05 00:47:50;;;;;;;2.92;1.50;;;13.70;82.40;;;13.31;58.92;97251.25;5024256;28;20473;-85
2023/06/05 00:50:17;;;;;;;2.63;1.77;;;13.70;82.90;;;13.44;60.52;97277.13;5042059;28;20498;-85
2023/06/05 00:52:44;;;;;;;2.00;1.50;;;13.60;83.90;;;13.46;60.59;97284.06;5046491;28;20036;-84
2023/06/05 00:55:11;;;;;;;2.38;1.70;;;13.60;84.10;;;13.35;59.92;97265.19;5047803;28;20031;-85
2023/06/05 00:57:39;;;;;;;2.85;1.50;;;13.60;83.70;;;12.79;60.48;97177.03;5036230;28;20593;-84
2023/06/05 01:00:08;;;;;;;2.25;1.63;;;13.60;84.10;;;13.24;60.00;97257.75;5049547;28;20421;-84
2023/06/05 01:02:37;;;;;;;1.55;1.40;;;13.60;83.70;;;13.41;61.87;97290.53;5026913;28;20157;-85
2023/06/05 01:05:03;;;;;;;2.92;1.65;;;13.60;84.80;;;13.29;62.48;97279.56;5062499;28;20040;-85
2023/06/05 01:07:32;;;;;;;2.60;1.73;;;13.50;85.30;;;13.27;62.75;97283.25;5070207;28;20024;-85
2023/06/05 01:10:00;;;;;;;2.70;1.70;;;13.50;85.40;;;13.16;62.87;97267.88;5063453;28;20074;-85
2023/06/05 01:12:59;;;;;;;2.15;1.55;;;13.40;85.30;;;13.12;62.51;97269.81;5047049;28;20115;-85
2023/06/05 01:15:28;;;;;;;1.40;1.30;;;13.40;85.20;;;13.12;62.16;97290.16;5047319;28;20029;-84
2023/06/05 01:17:58;;;;;;;2.25;1.50;;;13.40;85.20;;;12.96;64.32;97268.88;5044801;28;20915;-85
2023/06/05 01:20:35;;;;;;;3.10;1.52;;;13.30;86.40;;;13.01;65.59;97272.16;5047380;28;21225;-84
2023/06/05 01:23:07;;;;;;;3.15;1.60;;;13.30;87.10;;;12.94;65.80;97271.59;5051221;28;20078;-85
2023/06/05 01:25:36;;;;;;;3.65;1.38;;;13.20;87.30;;;12.97;65.74;97274.09;5047380;28;20028;-85
2023/06/05 01:28:17;;;;;;;3.83;1.73;;;13.20;87.30;;;12.85;65.17;97256.16;5048404;28;20032;-85
2023/06/05 01:30:53;;;;;;;1.67;1.27;;;13.20;87.00;;;12.85;65.67;97271.16;5046317;28;20024;-85
2023/06/05 01:33:31;;;;;;;2.42;1.63;;;13.10;87.40;;;13.01;64.99;97292.44;5044319;28;20109;-85
2023/06/05 01:36:04;;;;;;;3.88;1.50;;;13.20;87.00;;;12.94;65.01;97284.81;5050990;28;20028;-85
2023/06/05 01:38:34;;;;;;;2.90;1.50;;;13.20;87.10;;;12.87;66.60;97270.16;5054768;28;20033;-85
2023/06/05 01:41:02;;;;;;;2.88;1.40;;;13.20;87.90;;;12.94;66.29;97278.69;5029282;28;20252;-85
2023/06/05 01:43:27;;;;;;;1.70;1.48;;;13.10;87.80;;;12.54;65.94;97220.59;5049370;28;20032;-84
2023/06/05 01:45:56;;;;;;;3.70;1.40;;;13.10;87.60;;;12.87;65.50;97267.53;5050742;28;20079;-85
2023/06/05 01:48:23;;;;;;;3.38;1.70;;;13.10;87.40;;;12.74;65.67;97246.09;5066209;28;20031;-85
2023/06/05 01:50:52;;;;;;;2.40;1.60;;;13.10;87.50;;;12.92;65.90;97281.41;5050051;28;20033;-85
2023/06/05 01:53:19;;;;;;;2.55;1.60;;;13.10;87.60;;;12.36;66.95;97205.56;5049460;28;20067;-85
2023/06/05 01:55:46;;;;;;;2.47;1.70;;;13.10;88.30;;;12.86;67.51;97283.47;5048315;22;20041;-36
2023/06/05 01:58:12;;;;;;;4.47;1.67;;;13.00;88.50;;;12.79;66.69;97285.53;5041904;28;20032;-36
2023/06/05 02:00:38;;;;;;;3.38;1.88;;;13.00;88.10;;;12.73;67.44;97285.84;5027422;28;20037;-36
2023/06/05 02:03:04;;;;;;;2.78;1.83;;;12.90;88.40;;;12.62;67.58;97278.41;5055748;22;20624;-38
2023/06/05 02:05:30;;;;;;;2.08;1.58;;;12.90;88.50;;;12.63;68.52;97280.13;5045928;28;20036;-38
2023/06/05 02:07:58;;;;;;;3.72;1.58;;;12.80;89.10;;;12.59;68.59;97284.69;5045360;28;20037;-38
2023/06/05 02:10:24;;;;;;;2.00;1.50;;;12.80;89.20;;;12.59;68.27;97278.56;5031209;28;20777;-38
2023/06/05 02:12:51;;;;;;;2.05;1.42;;;12.80;89.10;;;12.56;69.70;97276.91;5030829;28;20032;-38
2023/06/05 02:15:16;;;;;;;2.78;1.80;;;12.80;89.90;;;12.52;70.58;97280.63;5027137;28;20787;-38
2023/06/05 02:17:53;;;;;;;3.10;1.90;;;12.70;90.10;;;12.52;70.69;97274.47;5030436;28;20029;-38
2023/06/05 02:20:21;;;;;;;3.53;1.80;;;12.70;90.10;;;12.50;72.33;97271.91;5032878;28;20040;-38
2023/06/05 02:22:49;;;;;;;2.60;1.85;;;12.70;90.60;;;12.46;71.75;97274.78;5030513;28;20021;-38
2023/06/05 02:25:16;;;;;;;2.10;1.60;;;12.60;90.40;;;12.37;70.78;97266.31;5030180;28;20044;-38
2023/06/05 02:27:41;;;;;;;4.43;1.60;;;12.60;90.20;;;12.44;70.96;97277.50;5030290;28;20033;-38
2023/06/05 02:30:08;;;;;;;2.35;1.60;;;12.60;90.30;;;12.41;72.69;97278.47;5016420;28;21040;-38
2023/06/05 02:32:35;;;;;;;1.90;1.60;;;12.60;90.70;;;12.38;73.55;97277.75;5022700;28;20159;-38
2023/06/05 02:35:02;;;;;;;2.70;1.95;;;12.60;91.00;;;12.33;74.40;97274.50;5029737;28;20036;-38
2023/06/05 02:37:28;;;;;;;2.70;1.63;;;12.50;91.10;;;12.29;75.06;97279.06;5029479;28;20036;-38
2023/06/05 02:39:54;;;;;;;3.17;1.60;;;12.50;91.30;;;12.20;76.62;97271.53;5026069;28;20056;-38
2023/06/05 02:42:20;;;;;;;2.75;1.70;;;12.40;91.60;;;12.19;78.34;97283.91;5021149;28;20854;-39
2023/06/05 02:44:46;;;;;;;2.38;1.45;;;12.40;92.40;;;12.00;78.06;97256.56;5021490;28;20487;-38
2023/06/05 02:47:12;;;;;;;2.30;1.60;;;12.30;91.90;;;12.08;78.13;97275.59;5021202;28;20130;-38
2023/06/05 02:49:38;;;;;;;3.13;1.70;;;12.30;92.00;;;11.98;77.17;97271.63;5030094;28;20557;-38
2023/06/05 02:52:05;;;;;;;2.08;1.48;;;12.20;91.80;;;12.02;76.85;97271.44;5024830;28;20033;-38
2023/06/05 02:54:30;;;;;;;2.95;1.70;;;12.20;91.80;;;11.99;78.79;97274.22;5030683;28;22890;-37
2023/06/05 02:56:56;;;;;;;2.40;1.83;;;12.20;92.20;;;11.95;79.97;97279.69;5024744;28;20072;-37
2023/06/05 02:59:24;;;;;;;3.35;1.58;;;12.20;92.50;;;11.91;80.67;97268.41;5030569;28;20493;-37
2023/06/05 03:01:51;;;;;;;2.85;1.67;;;12.10;92.60;;;11.87;81.72;97272.09;5028643;28;20032;-37
2023/06/05 03:04:21;;;;;;;3.40;1.48;;;12.10;92.90;;;11.84;80.17;97270.44;5028783;28;20086;-37
2023/06/05 03:06:50;;;;;;;2.97;1.80;;;12.10;92.60;;;11.84;80.09;97270.44;5026607;28;20032;-37
2023/06/05 03:09:16;;;;;;;2.72;1.60;;;12.00;92.60;;;11.82;81.05;97274.06;5030948;28;20029;-37
2023/06/05 03:11:43;;;;;;;4.55;1.52;;;12.00;92.80;;;11.81;82.53;97267.94;5024455;28;20401;-37
2023/06/05 03:14:09;;;;;;;4.72;1.63;;;12.00;93.20;;;11.77;82.01;97269.00;5030104;28;20225;-37
2023/06/05 03:16:41;;;;;;;2.80;1.92;;;12.00;93.10;;;11.75;83.65;97276.09;5025871;28;20060;-37
2023/06/05 03:19:08;;;;;;;2.47;1.65;;;12.00;93.50;;;11.70;83.77;97275.47;5028500;28;20025;-37
2023/06/05 03:21:40;;;;;;;3.92;1.73;;;11.90;93.50;;;11.57;84.58;97251.34;5027280;28;20037;-38
2023/06/05 03:24:17;;;;;;;3.85;1.77;;;11.90;93.70;;;11.63;85.23;97268.75;5037012;28;20056;-38
2023/06/05 03:26:43;;;;;;;4.60;1.67;;;11.80;93.90;;;11.59;83.61;97267.13;5034985;28;20171;-38
2023/06/05 03:29:12;;;;;;;2.83;1.85;;;11.80;93.60;;;11.57;82.65;97259.28;5027886;28;20021;-38
2023/06/05 03:31:38;;;;;;;3.60;1.70;;;11.80;93.40;;;11.54;84.44;97259.44;5031637;28;20397;-38
2023/06/05 03:34:04;;;;;;;2.95;1.77;;;11.80;93.80;;;11.58;82.95;97266.28;5036954;28;20578;-38
2023/06/05 03:36:33;;;;;;;1.75;1.48;;;11.80;93.60;;;11.61;81.92;97270.56;5031014;28;20035;-38
2023/06/05 03:38:58;;;;;;;2.95;1.83;;;11.80;93.40;;;11.64;83.08;97276.56;5030972;28;20037;-39
2023/06/05 03:41:25;;;;;;;2.72;1.60;;;11.90;93.70;;;11.65;84.54;97285.38;5030367;28;20111;-38
2023/06/05 03:43:51;;;;;;;3.20;1.85;;;11.90;94.00;;;11.63;85.77;97274.88;5030240;28;20036;-38
2023/06/05 03:46:19;;;;;;;4.40;1.80;;;11.90;94.30;;;11.64;84.55;97281.00;5031385;28;20124;-38
2023/06/05 03:48:46;;;;;;;2.38;1.50;;;11.90;94.10;;;11.67;85.51;97274.75;5028400;28;20059;-38
2023/06/05 03:51:12;;;;;;;2.30;1.50;;;11.90;94.30;;;11.66;85.98;97287.09;5027422;28;20136;-38
2023/06/05 03:53:43;;;;;;;4.53;1.65;;;11.90;94.40;;;11.63;85.90;97272.25;5033175;28;20047;-38
2023/06/05 03:56:08;;;;;;;3.08;2.05;;;11.90;94.40;;;11.59;87.26;97272.41;5033211;28;20069;-38
2023/06/05 03:58:34;;;;;;;3.13;1.80;;;11.80;94.70;;;11.65;88.60;97286.22;5030320;28;20055;-39
2023/06/05 04:01:00;;;;;;;3.15;1.90;;;11.90;95.10;;;11.65;89.84;97283.59;5018625;28;20497;-38
2023/06/05 04:03:27;;;;;;;2.85;1.90;;;11.90;95.40;;;11.64;91.03;97281.84;5028589;28;20033;-38
2023/06/05 04:05:52;;;;;;;4.15;1.90;;;11.90;95.70;;;11.70;91.34;97287.81;5031287;28;20411;-38
2023/06/05 04:08:18;;;;;;;2.92;1.83;;;11.90;95.80;;;11.74;91.18;97292.06;5031595;28;20029;-38
2023/06/05 04:10:44;;;;;;;4.25;1.50;;;11.90;95.80;;;11.77;91.63;97292.78;5033917;28;20493;-38
2023/06/05 04:13:10;;;;;;;3.45;1.80;;;12.00;95.90;;;11.82;91.98;97288.13;5032420;28;20038;-38
2023/06/05 04:15:36;;;;;;;3.03;1.90;;;12.00;96.00;;;11.78;92.11;97277.78;5029201;28;20040;-38
2023/06/05 04:18:03;;;;;;;3.47;2.00;;;12.10;96.10;;;11.92;92.16;97288.63;5037331;28;20137;-38
2023/06/05 04:20:29;;;;;;;2.28;1.60;;;12.10;96.10;;;12.00;91.05;97294.41;5032637;28;20029;-38
2023/06/05 04:22:54;;;;;;;2.72;1.80;;;12.20;96.00;;;12.08;91.01;97301.16;5032720;28;20091;-38
2023/06/05 04:25:20;;;;;;;3.15;1.90;;;12.30;96.00;;;12.14;92.25;97303.53;5031423;28;20116;-38
2023/06/05 04:27:50;;;;;;;2.78;1.67;;;12.30;96.20;;;12.19;92.44;97304.19;5034764;28;20087;-38
2023/06/05 04:30:16;;;;;;;3.40;1.80;;;12.40;96.30;;;12.19;91.28;97293.63;5028044;28;20036;-38
2023/06/05 04:32:41;;;;;;;3.75;2.28;;;12.40;96.10;;;12.34;91.13;97305.28;5034553;28;20444;-38
2023/06/05 04:35:11;;;;;;;2.95;1.75;;;12.50;96.10;;;12.29;89.54;97289.63;5035718;28;20041;-39
2023/06/05 04:37:38;;;;;;;2.17;1.70;;;12.60;95.90;;;12.39;86.50;97285.63;5025981;28;20053;-38
2023/06/05 04:40:07;;;;;;;2.28;1.65;;;12.70;95.20;;;12.50;84.87;97290.41;5025759;28;20033;-38
2023/06/05 04:42:33;;;;;;;2.53;1.83;;;12.80;94.80;;;12.66;82.85;97298.50;5042246;28;21067;-38
2023/06/05 04:45:02;;;;;;;2.70;1.70;;;12.90;94.40;;;12.73;82.38;97297.28;5029727;28;20030;-39
2023/06/05 04:47:28;;;;;;;3.35;1.88;;;12.90;94.30;;;12.83;79.30;97294.19;5019631;28;20032;-38
2023/06/05 04:49:54;;;;;;;2.95;1.83;;;13.00;93.70;;;12.94;79.99;97310.44;5027486;28;20029;-38
2023/06/05 04:52:23;;;;;;;2.95;1.80;;;13.10;93.80;;;13.02;81.67;97304.78;5027802;28;20029;-39
2023/06/05 04:54:49;;;;;;;3.28;1.80;;;13.20;94.10;;;13.08;81.00;97300.03;5035842;28;20733;-38
2023/06/05 04:57:18;;;;;;;3.05;1.60;;;13.30;94.10;;;13.12;80.99;97301.59;5033450;28;20029;-38
2023/06/05 04:59:45;;;;;;;2.92;1.90;;;13.30;94.10;;;13.21;78.42;97299.41;5031126;28;20029;-38
2023/06/05 05:02:12;;;;;;;6.60;1.83;;;13.40;93.50;;;13.31;77.66;97303.38;5028096;28;20040;-38
2023/06/05 05:04:37;;;;;;;4.10;1.95;;;13.50;93.30;;;13.38;78.07;97304.78;5031543;28;20082;-39
2023/06/05 05:07:03;;;;;;;3.97;2.00;;;13.60;93.40;;;13.46;78.76;97301.75;5027157;28;20028;-39
2023/06/05 05:09:33;;;;;;;4.07;2.03;;;13.60;93.50;;;13.54;79.46;97308.38;5027830;28;20036;-38
2023/06/05 05:11:59;;;;;;;4.38;2.05;;;13.70;93.70;;;13.63;77.67;97311.50;5029873;28;20395;-38
2023/06/05 05:14:27;;;;;;;3.15;1.65;;;13.80;93.40;;;13.72;76.02;97308.38;5030771;28;20029;-38
2023/06/05 05:16:53;;;;;;;3.35;1.70;;;13.90;93.00;;;13.80;75.47;97308.84;5033122;28;20028;-38
2023/06/05 05:19:19;;;;;;;3.08;1.88;;;14.00;92.90;;;13.89;73.59;97307.50;5031903;28;20044;-38
2023/06/05 05:21:47;;;;;;;3.90;1.73;;;14.10;92.90;;;14.03;72.44;97305.03;5031852;28;20543;-38
2023/06/05 05:24:12;;;;;;;5.55;2.08;;;14.20;92.20;;;14.21;71.23;97310.28;5035362;28;20782;-38
2023/06/05 05:26:39;;;;;;;3.20;1.52;;;14.30;92.00;;;14.73;68.71;97315.44;5032681;28;20039;-38
2023/06/05 05:29:08;;;;;;;2.25;1.58;;;14.60;91.80;;;15.34;65.06;97313.78;5028964;28;20044;-38
2023/06/05 05:31:34;;;;;;;2.78;1.70;;;14.90;91.30;;;15.50;63.82;97311.09;5018160;28;20032;-39
2023/06/05 05:34:00;;;;;;;6.03;1.63;;;15.10;90.90;;;15.51;64.07;97310.16;5028950;28;20021;-39
2023/06/05 05:36:27;;;;;;;3.17;1.52;;;15.30;90.80;;;15.40;65.05;97309.94;5024337;28;20401;-38
2023/06/05 05:38:56;;;;;;;3.22;1.67;;;15.30;90.80;;;15.29;67.40;97307.91;5025250;28;20439;-39
2023/06/05 05:41:22;;;;;;;3.22;1.83;;;15.30;91.20;;;15.25;70.18;97314.31;5030324;28;20039;-39
2023/06/05 05:43:48;;;;;;;3.85;1.83;;;15.30;91.80;;;15.23;70.74;97314.41;5010558;28;20840;-39
2023/06/05 05:46:14;;;;;;;2.78;2.05;;;15.30;91.80;;;15.17;68.90;97298.81;5012690;28;20033;-38
2023/06/05 05:48:39;;;;;;;3.83;1.70;;;15.40;91.50;;;15.28;66.37;97325.63;5005717;28;20460;-38
2023/06/05 05:51:06;;;;;;;2.67;1.42;;;15.40;90.80;;;15.32;65.51;97325.47;5025479;28;20037;-38
2023/06/05 05:53:32;;;;;;;3.47;1.50;;;15.50;90.60;;;15.41;64.74;97314.28;5031905;28;20124;-38
2023/06/05 05:55:59;;;;;;;5.00;1.80;;;15.60;90.50;;;15.53;64.21;97323.38;5031786;28;20159;-38
2023/06/05 05:58:25;;;;;;;4.13;1.88;;;15.60;90.20;;;15.68;62.55;97321.63;5034056;28;20040;-38
2023/06/05 06:00:50;;;;;;;4.18;2.00;;;15.80;89.90;;;15.74;60.35;97321.25;5030064;28;20394;-38
2023/06/05 06:03:17;;;;;;;2.80;2.08;;;15.90;88.90;;;15.82;60.37;97327.84;5021121;28;20033;-39
2023/06/05 06:05:44;;;;;;;3.72;2.22;;;15.90;88.60;;;15.93;60.46;97329.88;5025680;28;20029;-39
2023/06/05 06:08:10;;;;;;;4.75;2.35;;;16.00;88.80;;;16.08;60.61;97329.91;5032752;28;20433;-38
2023/06/05 06:10:36;;;;;;;2.75;1.90;;;16.10;88.70;;;16.17;60.61;97326.72;5033536;28;20064;-39
2023/06/05 06:13:04;;;;;;;2.92;1.92;;;16.30;88.80;;;16.37;60.68;97326.34;5033593;28;20041;-38
2023/06/05 06:15:31;;;;;;;2.85;1.98;;;16.40;88.60;;;16.49;58.65;97324.72;5031424;28;20037;-37
2023/06/05 06:17:57;;;;;;;2.95;1.80;;;16.50;87.20;;;16.61;59.15;97321.28;5031771;28;20033;-38
2023/06/05 06:20:23;;;;;;;3.55;1.80;;;16.60;87.60;;;16.69;58.86;97306.63;5032920;28;20048;-37
2023/06/05 06:22:49;;;;;;;4.57;1.98;;;16.80;87.70;;;16.89;56.81;97326.72;5030926;28;20036;-37
2023/06/05 06:25:17;;;;;;;4.70;2.10;;;16.90;86.20;;;17.03;56.30;97325.81;5031976;28;20033;-37
2023/06/05 06:27:45;;;;;;;3.17;1.92;;;17.00;85.70;;;17.16;55.52;97326.75;5030608;28;20549;-37
2023/06/05 06:30:12;;;;;;;3.08;1.60;;;17.10;85.20;;;17.31;55.17;97324.91;5024944;28;20029;-37
2023/06/05 06:32:37;;;;;;;5.32;2.17;;;17.30;84.90;;;17.40;53.88;97323.44;5029643;28;20200;-38
2023/06/05 06:35:06;;;;;;;4.70;2.10;;;17.40;84.00;;;17.51;53.12;97334.25;5033809;28;20041;-38
2023/06/05 06:37:31;;;;;;;4.32;2.30;;;17.40;83.20;;;17.54;52.08;97336.72;5030096;28;20059;-37
2023/06/05 06:39:57;;;;;;;5.68;2.20;;;17.50;82.20;;;17.62;51.85;97331.75;5022026;28;20033;-37
2023/06/05 06:42:23;;;;;;;3.53;2.10;;;17.60;81.80;;;17.74;52.16;97341.56;5026545;28;20044;-37
2023/06/05 06:44:49;;;;;;;3.50;1.83;;;17.70;82.40;;;17.89;52.30;97330.84;5018521;28;20030;-37
2023/06/05 06:47:15;;;;;;;4.28;2.50;;;17.80;82.70;;;18.03;51.22;97333.44;5023855;28;20486;-37
2023/06/05 06:49:40;;;;;;;2.00;1.75;;;17.90;81.90;;;18.22;51.12;97337.53;5029488;28;20044;-37
2023/06/05 06:52:06;;;;;;;5.90;2.58;;;18.10;81.50;;;18.36;50.36;97331.22;5031200;28;20033;-37
2023/06/05 06:54:32;;;;;;;4.72;2.30;;;18.30;81.60;;;18.50;49.56;97337.31;5030245;28;20035;-37
2023/06/05 06:57:00;;;;;;;3.65;2.40;;;18.40;80.00;;;18.60;49.68;97332.19;5028530;28;20393;-37
2023/06/05 06:59:26;;;;;;;7.32;2.70;;;18.50;79.70;;;18.56;49.22;97336.03;5029008;28;20056;-37
2023/06/05 07:02:14;;;;;;;4.68;2.40;;;18.50;78.60;;;18.68;50.37;97335.19;5025994;28;20041;-37
2023/06/05 07:04:42;;;;;;;5.82;2.20;;;18.60;80.40;;;18.72;49.74;97327.78;5027285;28;20481;-37
2023/06/05 07:07:13;;;;;;;2.97;2.20;;;18.70;80.20;;;18.87;50.11;97334.72;5033849;28;20044;-37
2023/06/05 07:09:40;;;;;;;2.95;2.15;;;18.80;80.50;;;19.03;48.85;97331.81;5029641;28;20038;-37
2023/06/05 07:12:08;;;;;;;3.45;2.20;;;19.00;79.20;;;19.17;49.08;97330.81;5028934;28;20035;-37
2023/06/05 07:14:34;;;;;;;6.68;2.10;;;19.10;78.70;;;19.27;48.56;97331.84;5027613;28;20040;-37
2023/06/05 07:17:00;;;;;;;5.75;2.92;;;19.20;79.00;;;19.35;46.76;97335.78;5017433;28;20037;-37
2023/06/05 07:19:29;;;;;;;3.55;2.28;;;19.30;77.40;;;19.42;46.60;97334.38;5029603;28;20036;-38
2023/06/05 07:21:57;;;;;;;3.08;2.20;;;19.40;75.60;;;19.62;48.21;97328.38;5030664;28;20036;-37
2023/06/05 07:24:24;;;;;;;2.78;2.28;;;19.50;77.70;;;19.83;47.90;97333.13;5032037;28;20117;-38
2023/06/05 07:26:56;;;;;;;4.10;2.38;;;19.70;78.10;;;20.00;45.69;97332.69;5020287;28;20041;-38
2023/06/05 07:29:25;;;;;;;5.80;2.30;;;19.90;76.00;;;20.11;44.88;97341.72;5035217;28;20022;-39
2023/06/05 07:31:55;;;;;;;4.57;2.60;;;20.00;74.20;;;20.15;44.52;97332.47;5024298;28;20044;-39
2023/06/05 07:34:22;;;;;;;3.22;2.47;;;20.00;73.90;;;20.15;45.23;97332.47;5029728;28;20032;-38
2023/06/05 07:36:50;;;;;;;4.60;2.67;;;20.00;74.50;;;20.23;44.79;97332.75;5027386;28;20021;-38
2023/06/05 07:39:16;;;;;;;4.22;2.33;;;20.10;74.10;;;20.20;45.05;97330.31;5034038;28;20029;-37
2023/06/05 07:41:42;;;;;;;4.03;2.40;;;20.10;74.50;;;20.27;46.55;97322.66;5035156;28;20041;-38
2023/06/05 07:44:10;;;;;;;6.28;2.85;;;20.20;75.90;;;20.40;45.47;97332.31;5034031;28;20028;-36
2023/06/05 07:46:39;;;;;;;3.08;2.40;;;20.30;73.80;;;20.33;45.59;97309.66;5031923;28;20306;-38
2023/06/05 07:49:05;;;;;;;5.10;3.17;;;20.40;74.90;;;20.53;46.55;97332.19;5028933;28;20064;-39
2023/06/05 07:51:35;;;;;;;5.40;3.00;;;20.50;75.50;;;20.64;45.81;97327.81;5026119;28;20223;-40
2023/06/05 07:54:05;;;;;;;3.97;2.35;;;20.60;75.20;;;20.76;45.57;97330.41;5023353;28;20060;-42
2023/06/05 07:56:32;;;;;;;4.50;2.70;;;20.70;75.10;;;20.89;46.38;97321.38;5042838;28;21442;-39
2023/06/05 07:58:57;;;;;;;3.92;2.95;;;20.70;75.60;;;20.95;45.03;97315.53;5017330;28;21770;-40
2023/06/05 08:01:23;;;;;;;5.57;2.85;;;20.90;74.40;;;20.97;44.84;97314.41;5020134;28;20052;-38
2023/06/05 08:03:50;;;;;;;6.78;3.40;;;20.90;74.10;;;20.81;45.33;97323.81;5017928;28;20997;-40
2023/06/05 08:06:15;;;;;;;6.60;3.90;;;20.80;74.40;;;20.84;45.96;97318.22;5026036;28;20029;-39
2023/06/05 08:08:42;;;;;;;4.75;3.13;;;20.80;75.30;;;20.87;46.48;97304.56;5035432;28;20029;-40
2023/06/05 08:11:09;;;;;;;4.97;3.00;;;20.80;75.40;;;21.09;46.37;97323.31;5037091;28;20154;-38
2023/06/05 08:13:37;;;;;;;6.50;3.55;;;21.00;76.20;;;21.17;48.60;97320.00;5029745;28;20065;-38
2023/06/05 08:16:03;;;;;;;6.00;3.33;;;21.10;77.60;;;21.34;47.93;97321.31;5026719;28;20029;-38
2023/06/05 08:18:28;;;;;;;6.10;3.70;;;21.20;77.80;;;21.36;48.07;97304.09;5029417;28;20029;-38
2023/06/05 08:20:54;;;;;;;4.47;3.30;;;21.40;78.30;;;21.59;48.07;97311.25;5029015;28;20037;-38
2023/06/05 08:23:20;;;;;;;10.23;4.07;;;21.40;78.50;;;21.64;48.76;97315.28;5033700;28;20054;-37
2023/06/05 08:25:48;;;;;;;5.00;3.58;;;21.60;78.40;;;21.72;48.50;97310.09;5030108;28;20508;-39
2023/06/05 08:28:15;;;;;;;6.45;3.67;;;21.60;77.70;;;21.77;47.85;97306.19;5022801;28;20033;-39
2023/06/05 08:30:41;;;;;;;5.53;3.40;;;21.70;77.90;;;21.89;47.66;97306.03;5030588;28;20029;-40
2023/06/05 08:33:07;;;;;;;4.75;3.25;;;21.80;77.40;;;21.95;47.39;97310.00;5034876;28;20029;-39
2023/06/05 08:35:33;;;;;;;5.18;3.47;;;21.80;76.70;;;22.06;47.61;97309.94;5021317;28;20048;-39
2023/06/05 08:37:58;;;;;;;6.85;3.30;;;22.00;76.90;;;22.00;46.48;97290.81;5023870;28;20037;-41
2023/06/05 08:40:28;;;;;;;6.22;3.42;;;22.00;75.80;;;22.14;46.44;97311.97;5021135;28;20036;-40
2023/06/05 08:42:55;;;;;;;5.40;3.78;;;22.00;75.60;;;22.16;47.37;97314.53;5032532;28;20037;-39
2023/06/05 08:45:21;;;;;;;8.73;3.65;;;22.10;76.70;;;22.26;47.42;97312.75;5032700;28;20552;-40
2023/06/05 08:47:51;;;;;;;5.82;4.00;;;22.20;77.10;;;22.35;47.31;97313.84;5030131;28;20048;-39
2023/06/05 08:50:17;;;;;;;7.20;4.03;;;22.20;76.80;;;22.36;46.59;97307.47;5033863;28;20450;-39
2023/06/05 08:52:45;;;;;;;7.82;4.22;;;22.30;76.00;;;22.41;47.36;97318.66;5031775;28;20044;-40
2023/06/05 08:55:11;;;;;;;5.43;3.40;;;22.40;76.60;;;22.51;47.42;97311.53;5036926;28;20048;-40
2023/06/05 08:57:41;;;;;;;7.20;4.43;;;22.40;76.50;;;22.52;46.58;97299.78;5025346;28;20037;-38
2023/06/05 09:00:12;;;;;;;5.80;3.95;;;22.50;76.30;;;22.53;47.76;97312.22;5014589;28;20412;-37
2023/06/05 09:02:43;;;;;;;7.45;4.70;;;22.50;77.00;;;22.47;46.64;97302.88;5026035;28;20036;-39
2023/06/05 09:05:09;;;;;;;5.65;3.90;;;22.50;76.00;;;22.42;47.17;97302.41;5030536;28;20032;-38
2023/06/05 09:07:37;;;;;;;4.88;3.63;;;22.40;76.40;;;22.49;48.24;97302.75;5030786;28;20029;-38
2023/06/05 09:10:04;;;;;;;4.32;3.67;;;22.40;77.40;;;22.56;48.70;97287.78;5034933;28;20395;-38
2023/06/05 09:12:30;;;;;;;5.13;4.03;;;22.50;77.80;;;22.66;47.65;97304.78;5021089;28;20032;-38
2023/06/05 09:14:56;;;;;;;6.15;3.60;;;22.50;77.20;;;22.69;47.59;97306.38;5026313;28;20797;-38
2023/06/05 09:17:22;;;;;;;5.32;3.70;;;22.60;76.90;;;22.75;46.63;97296.91;5023884;28;20032;-37
2023/06/05 09:19:48;;;;;;;4.30;3.70;;;22.70;76.40;;;22.82;47.16;97304.28;5032954;28;20033;-38
2023/06/05 09:22:16;;;;;;;9.30;4.30;;;22.80;76.90;;;22.88;47.08;97302.91;5018748;28;20098;-38
2023/06/05 09:24:42;;;;;;;9.70;4.80;;;22.80;77.10;;;22.82;46.88;97312.34;5016261;28;20032;-38
2023/06/05 09:27:10;;;;;;;5.57;4.38;;;22.80;75.80;;;22.76;45.87;97307.53;5030165;28;20441;-39
2023/06/05 09:29:39;;;;;;;6.28;4.28;;;22.80;75.20;;;22.70;46.78;97291.94;5032142;28;20033;-37
2023/06/05 09:32:06;;;;;;;5.45;3.90;;;22.70;75.10;;;22.75;46.31;97294.22;5027609;28;20484;-39
2023/06/05 09:34:37;;;;;;;5.32;3.30;;;22.70;75.60;;;22.80;47.62;97298.19;5023726;28;20041;-41
2023/06/05 09:37:05;;;;;;;7.22;3.95;;;22.80;76.60;;;22.86;46.82;97286.06;5028685;28;20029;-40
2023/06/05 09:39:46;;;;;;;5.45;4.05;;;22.80;76.80;;;22.89;46.60;97291.16;5033109;28;20029;-40
2023/06/05 09:42:12;;;;;;;8.65;4.45;;;22.90;75.80;;;22.98;49.01;97289.50;5022605;28;20775;-40
2023/06/05 09:44:37;;;;;;;7.05;4.05;;;22.90;76.70;;;23.02;47.11;97294.47;5032850;28;20021;-39
2023/06/05 09:47:08;;;;;;;6.63;4.70;;;23.00;76.60;;;23.08;46.88;97289.53;5028144;28;20043;-42
2023/06/05 09:49:42;;;;;;;5.18;3.70;;;23.10;76.40;;;23.20;49.35;97285.75;5028766;28;20028;-40
2023/06/05 09:52:11;;;;;;;8.73;4.03;;;23.20;77.50;;;23.33;47.49;97291.75;5032768;28;20028;-39
2023/06/05 09:54:44;;;;;;;6.38;4.00;;;23.30;77.60;;;23.41;46.15;97278.41;5032215;28;20111;-40
2023/06/05 09:57:12;;;;;;;4.32;3.50;;;23.40;75.50;;;23.50;45.30;97290.19;5031879;28;20497;-40
2023/06/05 09:59:55;;;;;;;5.90;3.97;;;23.40;74.70;;;23.45;45.46;97276.28;5035061;28;20029;-38
2023/06/05 10:02:25;;;;;;;9.20;3.97;;;23.40;75.00;;;23.40;45.75;97271.34;5030072;28;20021;-38
2023/06/05 10:04:56;;;;;;;5.25;4.25;;;23.40;74.80;;;23.59;48.86;97269.66;5026705;28;20056;-38
2023/06/05 10:07:23;;;;;;;6.30;4.10;;;23.50;78.60;;;23.73;44.74;97265.69;5034549;28;20030;-38
2023/06/05 10:09:50;;;;;;;3.88;3.47;;;23.60;74.60;;;23.81;43.99;97272.09;5032934;28;20493;-38
2023/06/05 10:12:16;;;;;;;8.75;4.00;;;23.70;72.20;;;23.84;45.19;97275.50;5031413;28;20039;-38
2023/06/05 10:14:43;;;;;;;10.45;4.00;;;23.80;73.80;;;23.78;43.15;97264.28;5035628;28;20060;-39
2023/06/05 10:17:12;;;;;;;5.65;3.97;;;23.90;71.20;;;23.75;42.68;97264.53;5029526;28;20473;-38
2023/06/05 10:19:44;;;;;;;5.95;3.60;;;23.80;69.20;;;23.82;43.14;97265.72;5026174;28;20033;-39
2023/06/05 10:22:11;;;;;;;5.53;3.83;;;23.80;71.50;;;24.01;43.13;97266.66;5032674;28;20477;-41